Holton, Kansas
Current Conditions -  °F | °C
As of 6:53 AM on Saturday 20 Dec 2014 (Local Time) from KTOP Reporting Station
Clear Clear  
Wind Chill: 27°   Ceiling: Unl
Heat Index: 32°   Visibility: 8mi
Dew Point: 29°   Wind: 5mph
Humidity: 88%   Direction: 150°SSE
Pressure: 30.16"   Gusts: NA
Location:  39.47°N, 95.74°W
Report Text: KTOP 201253Z 15004KT 8SM CLR 00/M02 A3016 RMK AO2 SLP220 T00001017
Loading
Personal Weather Stations






























Interactive Weather Map New forecast layout! Learn more

10-Day Weather Forecast

Advertisements
Track Severe Weather on mobile